createdAt,value
2022-12-17T00:01:03.809Z,-1.01
2022-12-17T00:03:49.582Z,-0.87
2022-12-17T00:06:35.748Z,-1.02
2022-12-17T00:09:32.881Z,-0.84
2022-12-17T00:12:18.259Z,-0.76
2022-12-17T00:15:03.400Z,-0.78
2022-12-17T00:17:50.035Z,-1.58
2022-12-17T00:20:35.253Z,-1.18
2022-12-17T00:23:22.519Z,-0.78
2022-12-17T00:26:12.066Z,-1.06
2022-12-17T00:28:57.829Z,-0.99
2022-12-17T00:31:45.120Z,-1.06
2022-12-17T00:34:37.437Z,-1.56
2022-12-17T00:37:23.059Z,-0.95
2022-12-17T00:40:08.284Z,-0.93
2022-12-17T00:42:53.652Z,-1.09
2022-12-17T00:45:41.818Z,-0.77
2022-12-17T00:48:27.121Z,-0.93
2022-12-17T00:51:15.352Z,-0.34
2022-12-17T00:54:00.701Z,-0.26
2022-12-17T00:56:46.035Z,-0.07
2022-12-17T00:59:39.711Z,-0.11
2022-12-17T01:02:25.312Z,0.01
2022-12-17T01:05:11.268Z,0.04
2022-12-17T01:07:57.888Z,0.38
2022-12-17T01:10:44.820Z,0.14
2022-12-17T01:13:32.276Z,0.22
2022-12-17T01:16:21.959Z,0.08
2022-12-17T01:19:07.286Z,0.38
2022-12-17T01:21:53.409Z,0.07
2022-12-17T01:24:40.455Z,-0.42
2022-12-17T01:27:26.829Z,-0.45
2022-12-17T01:30:12.710Z,-0.32
2022-12-17T01:32:58.017Z,-0.31
2022-12-17T01:35:43.398Z,-0.73
2022-12-17T01:38:29.750Z,-0.91
2022-12-17T01:41:16.801Z,-0.76
2022-12-17T01:44:02.227Z,-1.34
2022-12-17T01:46:51.690Z,-1.33
2022-12-17T01:49:38.285Z,-0.71
2022-12-17T01:52:24.159Z,-1.17
2022-12-17T01:55:09.634Z,-0.95
2022-12-17T01:57:57.175Z,-1.24
2022-12-17T02:00:43.042Z,-1.55
2022-12-17T02:03:33.468Z,-1.47
2022-12-17T02:06:29.268Z,-1.86
2022-12-17T02:09:27.556Z,-1.60
2022-12-17T02:12:25.780Z,-1.87
2022-12-17T02:15:20.122Z,-1.87
2022-12-17T02:18:11.891Z,-1.67
2022-12-17T02:21:01.017Z,-1.05
2022-12-17T02:23:57.665Z,-1.11
2022-12-17T02:26:55.758Z,-1.73
2022-12-17T02:29:43.546Z,-1.61
2022-12-17T02:32:31.925Z,-1.27
2022-12-17T02:35:20.019Z,-1.09
2022-12-17T02:38:05.700Z,-0.95
2022-12-17T02:40:50.187Z,-1.49
2022-12-17T02:43:38.497Z,-1.35
2022-12-17T02:46:25.428Z,-1.04
2022-12-17T02:49:11.295Z,-1.02
2022-12-17T02:51:57.538Z,-0.28
2022-12-17T02:54:47.964Z,-0.03
2022-12-17T02:57:33.309Z,-0.15
2022-12-17T03:00:20.547Z,0.28
2022-12-17T03:03:08.158Z,0.33
2022-12-17T03:05:53.663Z,0.42
2022-12-17T03:08:39.006Z,-0.51
2022-12-17T03:11:24.344Z,-0.13
2022-12-17T03:14:10.557Z,-0.13
2022-12-17T03:16:57.765Z,-0.26
2022-12-17T03:19:43.009Z,-0.67
2022-12-17T03:22:28.398Z,-0.61
2022-12-17T03:25:13.967Z,-0.61
2022-12-17T03:27:59.643Z,-0.01
2022-12-17T03:30:48.929Z,0.03
2022-12-17T03:33:36.372Z,0.30
2022-12-17T03:36:22.368Z,0.10
2022-12-17T03:39:06.851Z,-0.17
2022-12-17T03:41:52.335Z,0.27
2022-12-17T03:44:37.626Z,0.21
2022-12-17T03:47:22.875Z,0.17
2022-12-17T03:50:09.529Z,0.14
2022-12-17T03:52:54.899Z,0.04
2022-12-17T03:55:40.245Z,0.18
2022-12-17T03:58:25.877Z,-0.29
2022-12-17T04:01:11.418Z,0.01
2022-12-17T04:03:56.919Z,-0.54
2022-12-17T04:06:43.495Z,0.03
2022-12-17T04:09:28.828Z,-0.23
2022-12-17T04:12:14.132Z,-0.23
2022-12-17T04:14:59.431Z,-0.15
2022-12-17T04:17:45.308Z,-0.12
2022-12-17T04:20:30.717Z,-0.21
2022-12-17T04:23:17.747Z,-0.01
2022-12-17T04:26:03.039Z,-0.40
2022-12-17T04:28:48.281Z,-0.81
2022-12-17T04:31:33.740Z,-0.39
2022-12-17T04:34:30.717Z,-0.19
2022-12-17T04:37:16.066Z,-0.19
2022-12-17T04:40:02.695Z,0.16
2022-12-17T04:42:48.261Z,0.10
2022-12-17T04:45:33.813Z,0.18
2022-12-17T04:48:20.701Z,0.36
2022-12-17T04:51:17.455Z,0.08
2022-12-17T04:54:02.810Z,0.27
2022-12-17T04:56:49.865Z,0.44
2022-12-17T04:59:35.255Z,0.06
2022-12-17T05:02:20.572Z,0.29
2022-12-17T05:05:06.315Z,0.48
2022-12-17T05:07:51.632Z,0.56
2022-12-17T05:10:42.215Z,0.37
2022-12-17T05:13:29.133Z,0.41
2022-12-17T05:16:14.965Z,0.35
2022-12-17T05:19:00.723Z,0.16
2022-12-17T05:21:46.651Z,-0.03
2022-12-17T05:24:31.977Z,-0.32
2022-12-17T05:27:17.444Z,-0.24
2022-12-17T05:30:04.707Z,-0.36
2022-12-17T05:32:49.951Z,0.05
2022-12-17T05:35:35.974Z,0.02
2022-12-17T05:38:23.365Z,0.20
2022-12-17T05:41:09.713Z,-0.02
2022-12-17T05:43:55.110Z,-0.18
2022-12-17T05:46:42.309Z,-0.35
2022-12-17T05:49:27.621Z,-0.68
2022-12-17T05:52:13.198Z,-1.08
2022-12-17T05:54:58.426Z,-1.39
2022-12-17T05:57:43.852Z,-0.64
2022-12-17T06:00:30.335Z,-1.36
2022-12-17T06:03:18.957Z,-0.96
2022-12-17T06:06:04.278Z,-0.64
2022-12-17T06:08:49.790Z,-0.81
2022-12-17T06:11:35.007Z,-0.92
2022-12-17T06:14:20.535Z,-1.12
2022-12-17T06:17:05.716Z,-1.36
2022-12-17T06:19:52.964Z,-1.59
2022-12-17T06:22:38.750Z,-1.21
2022-12-17T06:25:27.109Z,-0.86
2022-12-17T06:28:17.060Z,-0.85
2022-12-17T06:31:09.326Z,-1.09
2022-12-17T06:33:56.226Z,-1.21
2022-12-17T06:36:43.343Z,-1.67
2022-12-17T06:39:40.142Z,-0.97
2022-12-17T06:42:26.048Z,-0.65
2022-12-17T06:45:11.303Z,-0.57
2022-12-17T06:47:56.614Z,-0.56
2022-12-17T06:50:41.734Z,-0.68
2022-12-17T06:53:29.739Z,-0.04
2022-12-17T06:56:17.110Z,-0.05
2022-12-17T06:59:02.332Z,-0.07
2022-12-17T07:01:48.676Z,-0.70
2022-12-17T07:04:34.407Z,-0.68
2022-12-17T07:07:20.104Z,-0.69
2022-12-17T07:10:13.617Z,-0.47
2022-12-17T07:13:01.858Z,-1.04
2022-12-17T07:15:48.143Z,-0.88
2022-12-17T07:18:33.355Z,-0.57
2022-12-17T07:21:18.730Z,-0.74
2022-12-17T07:24:04.159Z,-1.06
2022-12-17T07:27:02.561Z,-1.04
2022-12-17T07:29:48.075Z,-0.99
2022-12-17T07:32:33.389Z,-0.50
2022-12-17T07:35:18.826Z,-0.39
2022-12-17T07:38:04.141Z,-0.51
2022-12-17T07:40:49.788Z,-0.12
2022-12-17T07:43:37.213Z,-0.02
2022-12-17T07:46:23.438Z,-0.13
2022-12-17T07:49:14.611Z,-0.66
2022-12-17T07:52:02.668Z,-0.93
2022-12-17T07:54:47.977Z,-0.87
2022-12-17T07:57:33.726Z,-0.86
2022-12-17T08:00:20.623Z,-0.60
2022-12-17T08:03:06.625Z,-0.57
2022-12-17T08:05:52.511Z,-0.70
2022-12-17T08:08:37.899Z,-0.66
2022-12-17T08:11:25.870Z,-0.47
2022-12-17T08:14:11.703Z,-0.75
2022-12-17T08:16:58.504Z,-0.60
2022-12-17T08:19:44.141Z,-0.52
2022-12-17T08:22:29.537Z,-0.81
2022-12-17T08:25:15.070Z,-0.79
2022-12-17T08:28:01.112Z,-0.58
2022-12-17T08:30:51.513Z,-0.54
2022-12-17T08:33:38.489Z,-0.50
2022-12-17T08:36:24.279Z,-0.85
2022-12-17T08:39:09.520Z,-0.81
2022-12-17T08:41:57.444Z,-0.48
2022-12-17T08:44:45.115Z,-0.50
2022-12-17T08:47:30.456Z,-0.48
2022-12-17T08:50:17.476Z,-0.43
2022-12-17T08:53:02.661Z,-0.37
2022-12-17T08:55:48.049Z,-0.49
2022-12-17T08:58:33.406Z,-0.39
2022-12-17T09:01:20.058Z,-0.63
2022-12-17T09:04:06.129Z,-0.53
2022-12-17T09:06:52.685Z,-0.56
2022-12-17T09:09:39.464Z,-0.78
2022-12-17T09:12:25.439Z,-0.24
2022-12-17T09:15:10.771Z,-0.07
2022-12-17T09:17:56.163Z,-0.25
2022-12-17T09:20:41.394Z,-0.52
2022-12-17T09:23:28.067Z,0.36
2022-12-17T09:26:14.992Z,0.30
2022-12-17T09:29:01.182Z,0.72
2022-12-17T09:31:46.464Z,0.24
2022-12-17T09:34:31.927Z,-0.13
2022-12-17T09:37:17.660Z,-1.02
2022-12-17T09:40:04.690Z,-0.62
2022-12-17T09:42:59.936Z,-0.44
2022-12-17T09:45:51.505Z,-0.55
2022-12-17T09:48:41.906Z,-1.28
2022-12-17T09:51:39.776Z,-1.78
2022-12-17T09:54:33.549Z,-1.17
2022-12-17T09:57:20.584Z,-0.50
2022-12-17T10:00:05.954Z,-1.13
2022-12-17T10:02:58.298Z,-1.40
2022-12-17T10:05:49.647Z,-1.55
2022-12-17T10:08:39.114Z,-0.95
2022-12-17T10:11:35.717Z,-1.32
2022-12-17T10:14:30.656Z,-1.12
2022-12-17T10:17:16.203Z,-0.82
2022-12-17T10:20:01.991Z,-1.51
2022-12-17T10:22:47.666Z,-1.95
2022-12-17T10:25:35.529Z,-1.74
2022-12-17T10:28:23.636Z,-1.07
2022-12-17T10:31:10.585Z,-1.25
2022-12-17T10:33:58.997Z,-0.70
2022-12-17T10:36:45.848Z,-0.47
2022-12-17T10:39:35.017Z,-1.06
2022-12-17T10:42:20.891Z,-0.72
2022-12-17T10:45:14.583Z,-0.71
2022-12-17T10:48:02.958Z,-1.48
2022-12-17T10:51:06.319Z,-0.81
2022-12-17T10:53:52.155Z,-0.69
2022-12-17T10:56:41.493Z,-0.85
2022-12-17T10:59:31.565Z,-0.97
2022-12-17T11:02:18.210Z,-0.66
2022-12-17T11:05:12.063Z,-0.62
2022-12-17T11:08:01.979Z,-0.60
2022-12-17T11:10:51.360Z,-0.12
2022-12-17T11:13:47.558Z,-0.72
2022-12-17T11:16:39.502Z,-0.49
2022-12-17T11:19:44.306Z,-0.21
2022-12-17T11:22:40.156Z,-0.28
2022-12-17T11:25:45.506Z,0.06
2022-12-17T11:28:38.008Z,-0.11
2022-12-17T11:31:33.779Z,-0.79
2022-12-17T11:34:28.804Z,-1.02
2022-12-17T11:37:24.688Z,-0.62
2022-12-17T11:40:20.002Z,-0.71
2022-12-17T11:43:14.126Z,-0.76
2022-12-17T11:46:11.152Z,-1.07
2022-12-17T11:49:02.781Z,-1.21
2022-12-17T11:51:55.300Z,-1.13
2022-12-17T11:54:46.916Z,-1.19
2022-12-17T11:57:41.463Z,-0.84
2022-12-17T12:00:35.150Z,-0.99
2022-12-17T12:03:37.164Z,-1.26
2022-12-17T12:06:32.122Z,-0.57
2022-12-17T12:09:29.596Z,-1.15
2022-12-17T12:12:23.182Z,-0.87
2022-12-17T12:15:20.035Z,-1.61
2022-12-17T12:18:12.463Z,-1.08
2022-12-17T12:21:25.105Z,-1.13
2022-12-17T12:24:22.588Z,-1.00
2022-12-17T12:27:15.182Z,-1.22
2022-12-17T12:30:07.523Z,-1.50
2022-12-17T12:33:05.488Z,-1.31
2022-12-17T12:35:56.447Z,-1.11
2022-12-17T12:38:48.777Z,-1.34
2022-12-17T12:41:46.608Z,-1.57
2022-12-17T12:44:46.936Z,-1.11
2022-12-17T12:47:42.692Z,-1.41
2022-12-17T12:50:37.893Z,-1.45
2022-12-17T12:53:23.655Z,-0.89
2022-12-17T12:56:14.452Z,-1.24
2022-12-17T12:59:00.204Z,-1.21
2022-12-17T13:01:56.744Z,-1.22
2022-12-17T13:04:49.635Z,-0.92
2022-12-17T13:07:28.566Z,-0.67
2022-12-17T13:09:58.264Z,-1.20
2022-12-17T13:12:32.301Z,-1.58
2022-12-17T13:15:12.239Z,-1.67
2022-12-17T13:17:44.433Z,-1.60
2022-12-17T13:20:28.263Z,-0.99
2022-12-17T13:23:16.805Z,-1.13
2022-12-17T13:25:45.253Z,-1.55
2022-12-17T13:28:30.775Z,-1.71
2022-12-17T13:31:03.750Z,-1.08
2022-12-17T13:33:41.149Z,-1.13
2022-12-17T13:36:15.288Z,-0.71
2022-12-17T13:38:53.168Z,-0.83
2022-12-17T13:41:27.486Z,-1.12
2022-12-17T13:43:58.016Z,-1.31
2022-12-17T13:46:27.974Z,-1.46
2022-12-17T13:48:58.678Z,-1.64
2022-12-17T13:51:29.051Z,-1.30
2022-12-17T13:53:59.966Z,-0.94
2022-12-17T13:56:31.268Z,-1.04
2022-12-17T13:59:08.468Z,-1.11
2022-12-17T14:01:46.586Z,-1.19
2022-12-17T14:04:22.860Z,-1.64
2022-12-17T14:06:52.732Z,-1.50
2022-12-17T14:09:25.382Z,-1.47
2022-12-17T14:12:11.219Z,-1.58
2022-12-17T14:14:41.605Z,-1.27
2022-12-17T14:17:18.562Z,-1.47
2022-12-17T14:19:46.911Z,-1.09
2022-12-17T14:22:20.815Z,-1.27
2022-12-17T14:24:50.311Z,-0.90
2022-12-17T14:27:27.605Z,-1.07
2022-12-17T14:29:56.984Z,-1.43
2022-12-17T14:32:27.824Z,-1.31
2022-12-17T14:35:00.458Z,-1.45
2022-12-17T14:37:30.364Z,-1.49
2022-12-17T14:40:04.106Z,-1.40
2022-12-17T14:42:37.104Z,-1.22
2022-12-17T14:45:21.720Z,-1.11
2022-12-17T14:47:54.735Z,-1.17
2022-12-17T14:50:29.429Z,-1.56
2022-12-17T14:52:59.123Z,-1.08
2022-12-17T14:55:34.600Z,-1.44
2022-12-17T14:58:21.219Z,-1.46
2022-12-17T15:00:53.928Z,-1.66
2022-12-17T15:03:25.642Z,-1.79
2022-12-17T15:05:58.115Z,-1.46
2022-12-17T15:08:35.783Z,-1.81
2022-12-17T15:11:05.703Z,-1.83
2022-12-17T15:13:33.793Z,-1.87
2022-12-17T15:16:01.921Z,-1.39
2022-12-17T15:18:29.888Z,-1.77
2022-12-17T15:20:57.983Z,-1.22
2022-12-17T15:23:26.390Z,-1.26
2022-12-17T15:25:55.559Z,-1.42
2022-12-17T15:28:25.416Z,-1.21
2022-12-17T15:30:53.703Z,-1.54
2022-12-17T15:33:21.730Z,-1.30
2022-12-17T15:35:49.782Z,-0.86
2022-12-17T15:38:25.293Z,-1.49
2022-12-17T15:40:53.420Z,-0.87
2022-12-17T15:43:20.510Z,-1.32
2022-12-17T15:45:51.381Z,-1.35
2022-12-17T15:48:21.616Z,-1.30
2022-12-17T15:50:50.030Z,-1.44
2022-12-17T15:53:18.009Z,-1.24
2022-12-17T15:55:46.071Z,-1.28
2022-12-17T15:58:14.107Z,-1.11
2022-12-17T16:00:42.115Z,-1.63
2022-12-17T16:03:11.695Z,-1.42
2022-12-17T16:05:39.754Z,-1.70
2022-12-17T16:08:07.901Z,-1.63
2022-12-17T16:10:35.926Z,-1.60
2022-12-17T16:13:03.950Z,-1.60
2022-12-17T16:15:31.955Z,-1.54
2022-12-17T16:18:00.043Z,-1.48
2022-12-17T16:20:29.369Z,-1.63
2022-12-17T16:22:57.355Z,-1.27
2022-12-17T16:25:25.371Z,-1.49
2022-12-17T16:27:53.337Z,-1.65
2022-12-17T16:30:21.407Z,-1.37
2022-12-17T16:32:49.423Z,-1.63
2022-12-17T16:35:17.571Z,-1.67
2022-12-17T16:37:46.942Z,-1.62
2022-12-17T16:40:14.931Z,-1.54
2022-12-17T16:42:42.933Z,-1.67
2022-12-17T16:45:11.553Z,-1.54
2022-12-17T16:47:39.941Z,-1.58
2022-12-17T16:50:08.157Z,-1.74
2022-12-17T16:52:36.355Z,-2.13
2022-12-17T16:55:06.265Z,-1.94
2022-12-17T16:57:34.316Z,-1.75
2022-12-17T17:00:02.386Z,-1.39
2022-12-17T17:02:30.615Z,-1.51
2022-12-17T17:04:58.807Z,-1.76
2022-12-17T17:07:26.890Z,-1.75
2022-12-17T17:09:54.910Z,-1.66
2022-12-17T17:12:25.510Z,-1.56
2022-12-17T17:14:53.499Z,-1.11
2022-12-17T17:17:54.319Z,-1.11
2022-12-17T17:20:12.467Z,-1.67
2022-12-17T17:22:40.900Z,-1.42
2022-12-17T17:25:09.441Z,-1.27
2022-12-17T17:27:38.934Z,-1.78
2022-12-17T17:30:07.973Z,-1.57
2022-12-17T17:32:36.022Z,-1.50
2022-12-17T17:35:04.217Z,-1.91
2022-12-17T17:37:32.316Z,-1.91
2022-12-17T17:40:00.585Z,-1.70
2022-12-17T17:42:28.615Z,-1.44
2022-12-17T17:44:58.004Z,-1.74
2022-12-17T17:47:25.976Z,-1.34
2022-12-17T17:49:54.119Z,-1.53
2022-12-17T17:52:22.104Z,-1.03
2022-12-17T17:54:50.132Z,-1.70
2022-12-17T17:57:18.186Z,-1.66
2022-12-17T17:59:46.268Z,-1.52
2022-12-17T18:02:15.722Z,-1.52
2022-12-17T18:04:43.893Z,-1.64
2022-12-17T18:07:28.472Z,-1.45
2022-12-17T18:09:56.875Z,-1.35
2022-12-17T18:12:42.383Z,-1.68
2022-12-17T18:15:14.835Z,-1.44
2022-12-17T18:17:45.767Z,-1.33
2022-12-17T18:20:14.797Z,-1.42
2022-12-17T18:22:42.890Z,-2.17
2022-12-17T18:25:10.922Z,-1.70
2022-12-17T18:27:39.030Z,-1.54
2022-12-17T18:30:08.012Z,-1.63
2022-12-17T18:32:36.002Z,-1.53
2022-12-17T18:35:06.354Z,-1.79
2022-12-17T18:37:34.573Z,-1.72
2022-12-17T18:40:02.600Z,-1.74
2022-12-17T18:42:48.204Z,-2.23
2022-12-17T18:45:16.552Z,-2.12
2022-12-17T18:47:44.862Z,-1.90
2022-12-17T18:50:14.738Z,-2.10
2022-12-17T18:52:42.734Z,-1.81
2022-12-17T18:55:10.888Z,-2.14
2022-12-17T18:57:38.851Z,-2.29
2022-12-17T19:00:08.411Z,-1.75
2022-12-17T19:02:36.513Z,-1.75
2022-12-17T19:05:05.188Z,-2.06
2022-12-17T19:07:34.590Z,-2.13
2022-12-17T19:10:02.599Z,-2.07
2022-12-17T19:12:30.806Z,-2.35
2022-12-17T19:14:58.827Z,-2.00
2022-12-17T19:17:26.876Z,-1.72
2022-12-17T19:19:54.920Z,-1.96
2022-12-17T19:22:23.005Z,-1.55
2022-12-17T19:24:52.431Z,-2.15
2022-12-17T19:27:20.475Z,-2.51
2022-12-17T19:29:49.919Z,-2.55
2022-12-17T19:32:18.685Z,-2.44
2022-12-17T19:34:46.683Z,-2.56
2022-12-17T19:37:14.737Z,-2.53
2022-12-17T19:39:42.874Z,-2.69
2022-12-17T19:42:24.951Z,-2.72
2022-12-17T19:44:54.134Z,-2.91
2022-12-17T19:47:23.301Z,-2.48
2022-12-17T19:49:51.625Z,-2.93
2022-12-17T19:52:19.808Z,-2.88
2022-12-17T19:54:49.802Z,-2.67
2022-12-17T19:57:19.160Z,-2.83
2022-12-17T19:59:47.373Z,-3.05
2022-12-17T20:02:17.530Z,-3.39
2022-12-17T20:04:45.730Z,-3.12
2022-12-17T20:07:13.716Z,-2.95
2022-12-17T20:09:44.181Z,-2.77
2022-12-17T20:12:12.583Z,-3.34
2022-12-17T20:14:42.061Z,-2.83
2022-12-17T20:17:11.093Z,-3.20
2022-12-17T20:19:39.180Z,-3.14
2022-12-17T20:22:07.856Z,-2.87
2022-12-17T20:24:37.401Z,-3.38
2022-12-17T20:27:05.882Z,-2.91
2022-12-17T20:29:33.940Z,-3.20
2022-12-17T20:32:03.924Z,-2.66
2022-12-17T20:34:32.310Z,-2.65
2022-12-17T20:37:00.347Z,-3.23
2022-12-17T20:39:28.600Z,-2.88
2022-12-17T20:41:57.315Z,-3.21
2022-12-17T20:44:25.522Z,-3.48
2022-12-17T20:46:53.861Z,-3.27
2022-12-17T20:49:23.374Z,-3.59
2022-12-17T20:51:51.450Z,-3.10
2022-12-17T20:54:19.601Z,-3.13
2022-12-17T20:56:47.710Z,-3.21
2022-12-17T20:59:17.691Z,-2.98
2022-12-17T21:01:49.190Z,-3.37
2022-12-17T21:04:20.945Z,-3.26
2022-12-17T21:06:50.395Z,-3.42
2022-12-17T21:09:20.965Z,-3.42
2022-12-17T21:11:49.724Z,-3.27
2022-12-17T21:14:19.764Z,-3.02
2022-12-17T21:16:48.247Z,-3.21
2022-12-17T21:19:18.330Z,-2.96
2022-12-17T21:21:46.600Z,-2.74
2022-12-17T21:24:16.081Z,-2.86
2022-12-17T21:26:45.909Z,-2.74
2022-12-17T21:29:15.221Z,-3.13
2022-12-17T21:31:45.965Z,-2.90
2022-12-17T21:34:15.622Z,-2.89
2022-12-17T21:36:44.547Z,-3.35
2022-12-17T21:39:14.406Z,-3.13
2022-12-17T21:42:05.842Z,-3.10
2022-12-17T21:44:33.866Z,-3.04
2022-12-17T21:47:02.332Z,-2.99
2022-12-17T21:49:30.565Z,-2.77
2022-12-17T21:52:00.144Z,-3.08
2022-12-17T21:54:28.461Z,-3.12
2022-12-17T21:56:57.899Z,-3.04
2022-12-17T21:59:25.953Z,-2.95
2022-12-17T22:01:54.476Z,-2.20
2022-12-17T22:04:22.664Z,-2.33
2022-12-17T22:06:53.256Z,-2.31
2022-12-17T22:09:41.959Z,-2.76
2022-12-17T22:12:32.030Z,-2.92
2022-12-17T22:15:00.100Z,-2.56
2022-12-17T22:17:29.651Z,-2.83
2022-12-17T22:19:57.669Z,-2.83
2022-12-17T22:22:25.665Z,-2.73
2022-12-17T22:24:53.869Z,-2.65
2022-12-17T22:27:24.121Z,-2.85
2022-12-17T22:30:09.709Z,-2.82
2022-12-17T22:32:55.001Z,-2.59
2022-12-17T22:35:49.032Z,-2.82
2022-12-17T22:40:47.344Z,-2.74
2022-12-17T22:44:32.292Z,-2.58
2022-12-17T22:44:46.465Z,-2.45
2022-12-17T22:46:42.720Z,-2.70
2022-12-17T22:49:11.137Z,-2.54
2022-12-17T22:51:40.851Z,-2.35
2022-12-17T22:54:12.146Z,-2.69
2022-12-17T22:57:06.116Z,-2.22
2022-12-17T22:59:31.985Z,-2.13
2022-12-17T23:02:00.158Z,-2.35
2022-12-17T23:04:28.242Z,-2.53
2022-12-17T23:06:56.315Z,-2.47
2022-12-17T23:09:24.300Z,-2.80
2022-12-17T23:11:52.361Z,-2.31
2022-12-17T23:14:20.531Z,-2.38
2022-12-17T23:16:50.024Z,-2.69
2022-12-17T23:19:20.536Z,-2.65
2022-12-17T23:21:48.571Z,-3.17
2022-12-17T23:24:16.604Z,-2.81
2022-12-17T23:26:44.612Z,-2.89
2022-12-17T23:29:19.429Z,-2.57
2022-12-17T23:31:49.360Z,-2.20
2022-12-17T23:34:17.452Z,-2.18
2022-12-17T23:36:45.544Z,-2.45
2022-12-17T23:39:13.586Z,-2.50
2022-12-17T23:41:41.616Z,-2.55
2022-12-17T23:44:09.677Z,-2.51
2022-12-17T23:46:37.800Z,-2.79
2022-12-17T23:49:07.495Z,-2.76
2022-12-17T23:51:35.605Z,-2.51
2022-12-17T23:54:03.827Z,-2.30
2022-12-17T23:56:31.802Z,-2.68
2022-12-17T23:59:01.672Z,-2.53
